sensor_id;sensor_type;location;lat;lon;timestamp;P1;durP1;ratioP1;P2;durP2;ratioP2
66163;SDS011;52962;51.088;3.096;2023-07-31T00:04:43;0.32;;;0.32;;
66163;SDS011;52962;51.088;3.096;2023-07-31T00:07:11;0.60;;;0.60;;
66163;SDS011;52962;51.088;3.096;2023-07-31T00:12:08;1.48;;;0.40;;
66163;SDS011;52962;51.088;3.096;2023-07-31T00:14:36;1.98;;;0.77;;
66163;SDS011;52962;51.088;3.096;2023-07-31T00:17:05;0.45;;;0.45;;
66163;SDS011;52962;51.088;3.096;2023-07-31T00:19:33;0.17;;;0.17;;
66163;SDS011;52962;51.088;3.096;2023-07-31T00:24:29;1.55;;;0.50;;
66163;SDS011;52962;51.088;3.096;2023-07-31T00:26:59;1.02;;;0.70;;
66163;SDS011;52962;51.088;3.096;2023-07-31T00:29:27;0.25;;;0.17;;
66163;SDS011;52962;51.088;3.096;2023-07-31T00:31:56;0.80;;;0.80;;
66163;SDS011;52962;51.088;3.096;2023-07-31T00:34:24;0.70;;;0.22;;
66163;SDS011;52962;51.088;3.096;2023-07-31T00:36:53;3.67;;;0.60;;
66163;SDS011;52962;51.088;3.096;2023-07-31T00:41:49;0.13;;;0.13;;
66163;SDS011;52962;51.088;3.096;2023-07-31T00:46:46;1.20;;;1.10;;
66163;SDS011;52962;51.088;3.096;2023-07-31T00:49:15;1.95;;;1.15;;
66163;SDS011;52962;51.088;3.096;2023-07-31T00:51:43;1.48;;;0.45;;
66163;SDS011;52962;51.088;3.096;2023-07-31T00:54:12;3.28;;;1.90;;
66163;SDS011;52962;51.088;3.096;2023-07-31T00:56:40;3.22;;;1.67;;
66163;SDS011;52962;51.088;3.096;2023-07-31T00:59:12;8.45;;;2.83;;
66163;SDS011;52962;51.088;3.096;2023-07-31T01:01:41;4.90;;;2.30;;
66163;SDS011;52962;51.088;3.096;2023-07-31T01:04:10;4.95;;;2.15;;
66163;SDS011;52962;51.088;3.096;2023-07-31T01:06:40;3.92;;;2.15;;
66163;SDS011;52962;51.088;3.096;2023-07-31T01:09:15;3.00;;;1.77;;
66163;SDS011;52962;51.088;3.096;2023-07-31T01:11:52;2.33;;;1.85;;
66163;SDS011;52962;51.088;3.096;2023-07-31T01:14:24;6.35;;;2.08;;
66163;SDS011;52962;51.088;3.096;2023-07-31T01:19:22;2.53;;;1.95;;
66163;SDS011;52962;51.088;3.096;2023-07-31T01:21:57;4.68;;;2.58;;
66163;SDS011;52962;51.088;3.096;2023-07-31T01:24:36;4.95;;;2.60;;
66163;SDS011;52962;51.088;3.096;2023-07-31T01:27:21;3.50;;;2.20;;
66163;SDS011;52962;51.088;3.096;2023-07-31T01:29:55;4.78;;;2.50;;
66163;SDS011;52962;51.088;3.096;2023-07-31T01:32:27;2.75;;;2.10;;
66163;SDS011;52962;51.088;3.096;2023-07-31T01:34:56;5.13;;;2.30;;
66163;SDS011;52962;51.088;3.096;2023-07-31T01:37:27;5.88;;;2.58;;
66163;SDS011;52962;51.088;3.096;2023-07-31T01:39:56;3.42;;;2.80;;
66163;SDS011;52962;51.088;3.096;2023-07-31T01:42:26;6.80;;;2.30;;
66163;SDS011;52962;51.088;3.096;2023-07-31T01:44:54;4.10;;;2.40;;
66163;SDS011;52962;51.088;3.096;2023-07-31T01:47:22;4.38;;;2.50;;
66163;SDS011;52962;51.088;3.096;2023-07-31T01:49:51;6.50;;;2.88;;
66163;SDS011;52962;51.088;3.096;2023-07-31T01:52:19;4.15;;;2.25;;
66163;SDS011;52962;51.088;3.096;2023-07-31T01:54:47;4.03;;;1.85;;
66163;SDS011;52962;51.088;3.096;2023-07-31T01:57:15;3.97;;;1.48;;
66163;SDS011;52962;51.088;3.096;2023-07-31T01:59:45;3.17;;;1.55;;
66163;SDS011;52962;51.088;3.096;2023-07-31T02:02:13;5.03;;;2.63;;
66163;SDS011;52962;51.088;3.096;2023-07-31T02:04:42;3.13;;;2.17;;
66163;SDS011;52962;51.088;3.096;2023-07-31T02:09:38;3.35;;;2.00;;
66163;SDS011;52962;51.088;3.096;2023-07-31T02:12:06;3.22;;;1.83;;
66163;SDS011;52962;51.088;3.096;2023-07-31T02:14:36;5.40;;;2.47;;
66163;SDS011;52962;51.088;3.096;2023-07-31T02:17:06;3.53;;;2.17;;
66163;SDS011;52962;51.088;3.096;2023-07-31T02:19:35;2.25;;;1.52;;
66163;SDS011;52962;51.088;3.096;2023-07-31T02:22:03;3.42;;;2.60;;
66163;SDS011;52962;51.088;3.096;2023-07-31T02:24:32;3.40;;;1.73;;
66163;SDS011;52962;51.088;3.096;2023-07-31T02:27:00;6.35;;;2.53;;
66163;SDS011;52962;51.088;3.096;2023-07-31T02:29:28;15.07;;;3.42;;
66163;SDS011;52962;51.088;3.096;2023-07-31T02:31:57;19.02;;;5.13;;
66163;SDS011;52962;51.088;3.096;2023-07-31T02:34:26;159.25;;;149.48;;
66163;SDS011;52962;51.088;3.096;2023-07-31T02:36:55;53.25;;;49.65;;
66163;SDS011;52962;51.088;3.096;2023-07-31T02:39:23;216.88;;;199.80;;
66163;SDS011;52962;51.088;3.096;2023-07-31T02:44:19;119.72;;;110.13;;
66163;SDS011;52962;51.088;3.096;2023-07-31T02:46:47;116.47;;;108.43;;
66163;SDS011;52962;51.088;3.096;2023-07-31T02:49:16;215.50;;;195.32;;
66163;SDS011;52962;51.088;3.096;2023-07-31T02:54:13;107.65;;;100.15;;
66163;SDS011;52962;51.088;3.096;2023-07-31T02:56:41;145.65;;;133.82;;
66163;SDS011;52962;51.088;3.096;2023-07-31T02:59:09;153.05;;;142.23;;
66163;SDS011;52962;51.088;3.096;2023-07-31T03:01:38;160.55;;;148.57;;
66163;SDS011;52962;51.088;3.096;2023-07-31T03:04:06;256.85;;;237.93;;
66163;SDS011;52962;51.088;3.096;2023-07-31T03:06:35;261.90;;;242.40;;
66163;SDS011;52962;51.088;3.096;2023-07-31T03:09:06;289.65;;;267.73;;
66163;SDS011;52962;51.088;3.096;2023-07-31T03:11:34;154.73;;;143.23;;
66163;SDS011;52962;51.088;3.096;2023-07-31T03:14:02;158.98;;;148.30;;
66163;SDS011;52962;51.088;3.096;2023-07-31T03:16:30;295.10;;;273.00;;
66163;SDS011;52962;51.088;3.096;2023-07-31T03:18:59;262.85;;;242.90;;
66163;SDS011;52962;51.088;3.096;2023-07-31T03:21:27;252.82;;;233.55;;
66163;SDS011;52962;51.088;3.096;2023-07-31T03:26:25;183.05;;;170.48;;
66163;SDS011;52962;51.088;3.096;2023-07-31T03:28:53;179.85;;;168.45;;
66163;SDS011;52962;51.088;3.096;2023-07-31T03:31:21;220.82;;;203.10;;
66163;SDS011;52962;51.088;3.096;2023-07-31T03:33:49;315.40;;;291.23;;
66163;SDS011;52962;51.088;3.096;2023-07-31T03:36:18;313.40;;;288.65;;
66163;SDS011;52962;51.088;3.096;2023-07-31T03:41:14;160.63;;;151.13;;
66163;SDS011;52962;51.088;3.096;2023-07-31T03:43:50;122.40;;;115.03;;
66163;SDS011;52962;51.088;3.096;2023-07-31T03:46:19;146.02;;;134.65;;
66163;SDS011;52962;51.088;3.096;2023-07-31T03:48:47;275.05;;;255.45;;
66163;SDS011;52962;51.088;3.096;2023-07-31T03:51:16;180.63;;;166.95;;
66163;SDS011;52962;51.088;3.096;2023-07-31T03:53:44;230.75;;;214.95;;
66163;SDS011;52962;51.088;3.096;2023-07-31T03:56:13;196.75;;;182.25;;
66163;SDS011;52962;51.088;3.096;2023-07-31T03:58:41;311.55;;;287.98;;
66163;SDS011;52962;51.088;3.096;2023-07-31T04:01:11;179.68;;;165.90;;
66163;SDS011;52962;51.088;3.096;2023-07-31T04:03:39;307.20;;;282.10;;
66163;SDS011;52962;51.088;3.096;2023-07-31T04:06:07;154.38;;;144.30;;
66163;SDS011;52962;51.088;3.096;2023-07-31T04:08:37;320.80;;;296.20;;
66163;SDS011;52962;51.088;3.096;2023-07-31T04:11:05;233.30;;;216.10;;
66163;SDS011;52962;51.088;3.096;2023-07-31T04:13:33;188.75;;;175.55;;
66163;SDS011;52962;51.088;3.096;2023-07-31T04:16:02;181.48;;;168.70;;
66163;SDS011;52962;51.088;3.096;2023-07-31T04:18:31;238.27;;;218.88;;
66163;SDS011;52962;51.088;3.096;2023-07-31T04:21:00;279.17;;;255.48;;
66163;SDS011;52962;51.088;3.096;2023-07-31T04:23:29;157.05;;;144.65;;
66163;SDS011;52962;51.088;3.096;2023-07-31T04:25:57;272.63;;;248.63;;
66163;SDS011;52962;51.088;3.096;2023-07-31T04:28:26;196.13;;;180.85;;
66163;SDS011;52962;51.088;3.096;2023-07-31T04:33:22;171.05;;;159.70;;
66163;SDS011;52962;51.088;3.096;2023-07-31T04:35:52;170.88;;;154.57;;
66163;SDS011;52962;51.088;3.096;2023-07-31T04:38:21;296.80;;;273.77;;
66163;SDS011;52962;51.088;3.096;2023-07-31T04:40:49;164.23;;;150.45;;
66163;SDS011;52962;51.088;3.096;2023-07-31T04:45:45;156.00;;;143.98;;
66163;SDS011;52962;51.088;3.096;2023-07-31T04:48:16;200.50;;;185.00;;
66163;SDS011;52962;51.088;3.096;2023-07-31T04:50:44;295.23;;;273.45;;
66163;SDS011;52962;51.088;3.096;2023-07-31T04:53:13;184.73;;;172.07;;
66163;SDS011;52962;51.088;3.096;2023-07-31T04:55:42;181.10;;;169.43;;
66163;SDS011;52962;51.088;3.096;2023-07-31T05:00:38;133.32;;;124.05;;
66163;SDS011;52962;51.088;3.096;2023-07-31T05:03:06;146.52;;;134.35;;
66163;SDS011;52962;51.088;3.096;2023-07-31T05:05:34;158.52;;;147.07;;
66163;SDS011;52962;51.088;3.096;2023-07-31T05:08:03;145.40;;;133.30;;
66163;SDS011;52962;51.088;3.096;2023-07-31T05:10:32;206.60;;;191.55;;
66163;SDS011;52962;51.088;3.096;2023-07-31T05:13:03;205.20;;;188.73;;
66163;SDS011;52962;51.088;3.096;2023-07-31T05:15:32;246.48;;;226.02;;
66163;SDS011;52962;51.088;3.096;2023-07-31T05:20:28;204.73;;;187.52;;
66163;SDS011;52962;51.088;3.096;2023-07-31T05:22:56;171.93;;;158.70;;
66163;SDS011;52962;51.088;3.096;2023-07-31T05:25:24;313.20;;;257.58;;
66163;SDS011;52962;51.088;3.096;2023-07-31T05:30:22;83.85;;;78.22;;
66163;SDS011;52962;51.088;3.096;2023-07-31T05:32:50;175.52;;;162.07;;
66163;SDS011;52962;51.088;3.096;2023-07-31T05:35:18;203.77;;;188.98;;
66163;SDS011;52962;51.088;3.096;2023-07-31T05:40:14;116.03;;;108.60;;
66163;SDS011;52962;51.088;3.096;2023-07-31T05:42:42;177.85;;;161.73;;
66163;SDS011;52962;51.088;3.096;2023-07-31T05:45:12;200.65;;;185.15;;
66163;SDS011;52962;51.088;3.096;2023-07-31T05:47:41;135.30;;;125.88;;
66163;SDS011;52962;51.088;3.096;2023-07-31T05:50:09;226.30;;;209.23;;
66163;SDS011;52962;51.088;3.096;2023-07-31T05:52:37;165.15;;;152.50;;
66163;SDS011;52962;51.088;3.096;2023-07-31T05:57:34;149.38;;;138.98;;
66163;SDS011;52962;51.088;3.096;2023-07-31T06:00:03;196.52;;;181.45;;
66163;SDS011;52962;51.088;3.096;2023-07-31T06:02:34;246.68;;;228.95;;
66163;SDS011;52962;51.088;3.096;2023-07-31T06:05:04;171.57;;;159.57;;
66163;SDS011;52962;51.088;3.096;2023-07-31T06:07:33;227.63;;;206.07;;
66163;SDS011;52962;51.088;3.096;2023-07-31T06:10:01;204.95;;;189.93;;
66163;SDS011;52962;51.088;3.096;2023-07-31T06:12:32;230.35;;;213.40;;
66163;SDS011;52962;51.088;3.096;2023-07-31T06:15:01;216.65;;;201.23;;
66163;SDS011;52962;51.088;3.096;2023-07-31T06:17:30;184.88;;;171.82;;
66163;SDS011;52962;51.088;3.096;2023-07-31T06:20:00;209.32;;;195.18;;
66163;SDS011;52962;51.088;3.096;2023-07-31T06:22:29;163.30;;;152.13;;
66163;SDS011;52962;51.088;3.096;2023-07-31T06:24:57;214.32;;;198.63;;
66163;SDS011;52962;51.088;3.096;2023-07-31T06:27:26;198.63;;;184.15;;
66163;SDS011;52962;51.088;3.096;2023-07-31T06:32:22;243.32;;;224.80;;
66163;SDS011;52962;51.088;3.096;2023-07-31T06:34:50;122.13;;;113.68;;
66163;SDS011;52962;51.088;3.096;2023-07-31T06:39:48;145.13;;;134.52;;
66163;SDS011;52962;51.088;3.096;2023-07-31T06:42:16;132.13;;;121.85;;
66163;SDS011;52962;51.088;3.096;2023-07-31T06:44:44;236.70;;;219.68;;
66163;SDS011;52962;51.088;3.096;2023-07-31T06:47:12;190.00;;;176.73;;
66163;SDS011;52962;51.088;3.096;2023-07-31T06:49:40;191.10;;;176.57;;
66163;SDS011;52962;51.088;3.096;2023-07-31T06:52:09;176.32;;;163.50;;
66163;SDS011;52962;51.088;3.096;2023-07-31T06:54:39;318.10;;;287.73;;
66163;SDS011;52962;51.088;3.096;2023-07-31T06:57:07;241.05;;;224.68;;
66163;SDS011;52962;51.088;3.096;2023-07-31T06:59:35;323.23;;;298.42;;
66163;SDS011;52962;51.088;3.096;2023-07-31T07:02:04;191.68;;;177.20;;
66163;SDS011;52962;51.088;3.096;2023-07-31T07:04:33;216.80;;;198.68;;
66163;SDS011;52962;51.088;3.096;2023-07-31T07:09:29;267.10;;;242.15;;
66163;SDS011;52962;51.088;3.096;2023-07-31T07:11:58;169.85;;;157.32;;
66163;SDS011;52962;51.088;3.096;2023-07-31T07:14:26;216.25;;;192.70;;
66163;SDS011;52962;51.088;3.096;2023-07-31T07:16:55;170.68;;;154.48;;
66163;SDS011;52962;51.088;3.096;2023-07-31T07:19:23;272.73;;;254.32;;
66163;SDS011;52962;51.088;3.096;2023-07-31T07:21:51;250.43;;;230.70;;
66163;SDS011;52962;51.088;3.096;2023-07-31T07:24:20;191.95;;;177.27;;
66163;SDS011;52962;51.088;3.096;2023-07-31T07:26:48;330.02;;;307.48;;
66163;SDS011;52962;51.088;3.096;2023-07-31T07:29:18;263.77;;;245.73;;
66163;SDS011;52962;51.088;3.096;2023-07-31T07:31:46;180.70;;;168.30;;
66163;SDS011;52962;51.088;3.096;2023-07-31T07:34:14;156.63;;;145.55;;
66163;SDS011;52962;51.088;3.096;2023-07-31T07:36:43;186.65;;;172.27;;
66163;SDS011;52962;51.088;3.096;2023-07-31T07:39:11;307.95;;;284.83;;
66163;SDS011;52962;51.088;3.096;2023-07-31T07:41:39;251.85;;;234.60;;
66163;SDS011;52962;51.088;3.096;2023-07-31T07:44:07;201.95;;;184.98;;
66163;SDS011;52962;51.088;3.096;2023-07-31T07:46:37;253.95;;;235.90;;
66163;SDS011;52962;51.088;3.096;2023-07-31T07:49:06;254.45;;;235.48;;
66163;SDS011;52962;51.088;3.096;2023-07-31T07:51:34;290.02;;;269.00;;
66163;SDS011;52962;51.088;3.096;2023-07-31T07:54:03;275.10;;;254.80;;
66163;SDS011;52962;51.088;3.096;2023-07-31T07:56:32;409.70;;;382.58;;
66163;SDS011;52962;51.088;3.096;2023-07-31T07:59:03;303.15;;;281.58;;
66163;SDS011;52962;51.088;3.096;2023-07-31T08:01:31;264.20;;;240.95;;
66163;SDS011;52962;51.088;3.096;2023-07-31T08:04:01;245.68;;;226.43;;
66163;SDS011;52962;51.088;3.096;2023-07-31T08:06:29;195.00;;;179.88;;
66163;SDS011;52962;51.088;3.096;2023-07-31T08:11:31;165.15;;;153.55;;
66163;SDS011;52962;51.088;3.096;2023-07-31T08:14:00;244.15;;;226.93;;
66163;SDS011;52962;51.088;3.096;2023-07-31T08:16:28;232.45;;;216.23;;
66163;SDS011;52962;51.088;3.096;2023-07-31T08:18:57;233.63;;;218.00;;
66163;SDS011;52962;51.088;3.096;2023-07-31T08:21:27;276.58;;;257.25;;
66163;SDS011;52962;51.088;3.096;2023-07-31T08:23:55;227.50;;;210.23;;
66163;SDS011;52962;51.088;3.096;2023-07-31T08:26:24;260.65;;;240.23;;
66163;SDS011;52962;51.088;3.096;2023-07-31T08:31:20;192.93;;;179.35;;
66163;SDS011;52962;51.088;3.096;2023-07-31T08:33:48;199.80;;;182.15;;
66163;SDS011;52962;51.088;3.096;2023-07-31T08:36:16;307.70;;;287.02;;
66163;SDS011;52962;51.088;3.096;2023-07-31T08:38:46;266.50;;;246.57;;
66163;SDS011;52962;51.088;3.096;2023-07-31T08:41:14;341.13;;;316.35;;
66163;SDS011;52962;51.088;3.096;2023-07-31T08:43:44;335.85;;;309.23;;
66163;SDS011;52962;51.088;3.096;2023-07-31T08:46:13;266.50;;;248.38;;
66163;SDS011;52962;51.088;3.096;2023-07-31T08:48:42;379.33;;;351.02;;
66163;SDS011;52962;51.088;3.096;2023-07-31T08:51:11;342.20;;;315.30;;
66163;SDS011;52962;51.088;3.096;2023-07-31T08:53:41;235.07;;;215.00;;
66163;SDS011;52962;51.088;3.096;2023-07-31T08:56:11;314.52;;;287.38;;
66163;SDS011;52962;51.088;3.096;2023-07-31T08:58:41;272.23;;;253.30;;
66163;SDS011;52962;51.088;3.096;2023-07-31T09:01:10;272.83;;;252.68;;
66163;SDS011;52962;51.088;3.096;2023-07-31T09:03:40;239.38;;;221.63;;
66163;SDS011;52962;51.088;3.096;2023-07-31T09:06:09;303.00;;;280.77;;
66163;SDS011;52962;51.088;3.096;2023-07-31T09:08:39;313.80;;;292.17;;
66163;SDS011;52962;51.088;3.096;2023-07-31T09:11:11;271.27;;;250.60;;
66163;SDS011;52962;51.088;3.096;2023-07-31T09:13:40;300.83;;;276.88;;
66163;SDS011;52962;51.088;3.096;2023-07-31T09:16:09;362.58;;;335.00;;
66163;SDS011;52962;51.088;3.096;2023-07-31T09:18:48;263.95;;;241.32;;
66163;SDS011;52962;51.088;3.096;2023-07-31T09:21:20;318.52;;;295.05;;
66163;SDS011;52962;51.088;3.096;2023-07-31T09:23:49;319.88;;;296.15;;
66163;SDS011;52962;51.088;3.096;2023-07-31T09:26:30;357.73;;;331.08;;
66163;SDS011;52962;51.088;3.096;2023-07-31T09:29:00;278.85;;;259.65;;
66163;SDS011;52962;51.088;3.096;2023-07-31T09:31:32;265.92;;;243.57;;
66163;SDS011;52962;51.088;3.096;2023-07-31T09:34:01;345.67;;;321.23;;
66163;SDS011;52962;51.088;3.096;2023-07-31T09:36:29;280.08;;;259.50;;
66163;SDS011;52962;51.088;3.096;2023-07-31T09:39:01;209.18;;;194.43;;
66163;SDS011;52962;51.088;3.096;2023-07-31T09:41:32;298.88;;;276.80;;
66163;SDS011;52962;51.088;3.096;2023-07-31T09:44:04;202.88;;;188.75;;
66163;SDS011;52962;51.088;3.096;2023-07-31T09:46:34;240.38;;;221.52;;
66163;SDS011;52962;51.088;3.096;2023-07-31T09:49:05;258.58;;;238.75;;
66163;SDS011;52962;51.088;3.096;2023-07-31T09:51:36;312.42;;;290.83;;
66163;SDS011;52962;51.088;3.096;2023-07-31T09:54:09;380.80;;;351.00;;
66163;SDS011;52962;51.088;3.096;2023-07-31T09:56:42;258.73;;;241.20;;
66163;SDS011;52962;51.088;3.096;2023-07-31T09:59:12;294.58;;;273.40;;
66163;SDS011;52962;51.088;3.096;2023-07-31T10:01:42;271.98;;;250.75;;
66163;SDS011;52962;51.088;3.096;2023-07-31T10:04:12;251.23;;;229.77;;
66163;SDS011;52962;51.088;3.096;2023-07-31T10:06:42;319.50;;;298.38;;
66163;SDS011;52962;51.088;3.096;2023-07-31T10:09:12;330.27;;;302.40;;
66163;SDS011;52962;51.088;3.096;2023-07-31T10:11:47;306.60;;;283.83;;
66163;SDS011;52962;51.088;3.096;2023-07-31T10:14:23;319.83;;;295.65;;
66163;SDS011;52962;51.088;3.096;2023-07-31T10:16:53;355.70;;;330.13;;
66163;SDS011;52962;51.088;3.096;2023-07-31T10:19:21;299.98;;;275.25;;
66163;SDS011;52962;51.088;3.096;2023-07-31T10:21:50;333.83;;;307.60;;
66163;SDS011;52962;51.088;3.096;2023-07-31T10:24:19;366.67;;;339.50;;
66163;SDS011;52962;51.088;3.096;2023-07-31T10:26:49;288.88;;;268.38;;
66163;SDS011;52962;51.088;3.096;2023-07-31T10:29:19;290.58;;;270.55;;
66163;SDS011;52962;51.088;3.096;2023-07-31T10:31:50;320.30;;;296.65;;
66163;SDS011;52962;51.088;3.096;2023-07-31T10:34:19;302.13;;;279.60;;
66163;SDS011;52962;51.088;3.096;2023-07-31T10:36:48;327.38;;;304.17;;
66163;SDS011;52962;51.088;3.096;2023-07-31T10:39:36;256.08;;;236.95;;
66163;SDS011;52962;51.088;3.096;2023-07-31T10:42:11;193.68;;;179.25;;
66163;SDS011;52962;51.088;3.096;2023-07-31T10:44:43;303.10;;;281.30;;
66163;SDS011;52962;51.088;3.096;2023-07-31T10:47:14;328.98;;;302.23;;
66163;SDS011;52962;51.088;3.096;2023-07-31T10:49:44;287.17;;;265.15;;
66163;SDS011;52962;51.088;3.096;2023-07-31T10:52:13;334.67;;;311.60;;
66163;SDS011;52962;51.088;3.096;2023-07-31T10:57:46;296.67;;;275.98;;
66163;SDS011;52962;51.088;3.096;2023-07-31T11:00:19;201.70;;;186.00;;
66163;SDS011;52962;51.088;3.096;2023-07-31T11:02:59;246.15;;;228.65;;
66163;SDS011;52962;51.088;3.096;2023-07-31T11:08:17;247.15;;;228.90;;
66163;SDS011;52962;51.088;3.096;2023-07-31T11:10:48;365.40;;;341.23;;
66163;SDS011;52962;51.088;3.096;2023-07-31T11:13:19;277.35;;;258.63;;
66163;SDS011;52962;51.088;3.096;2023-07-31T11:15:47;307.15;;;285.55;;
66163;SDS011;52962;51.088;3.096;2023-07-31T11:18:16;307.67;;;281.23;;
66163;SDS011;52962;51.088;3.096;2023-07-31T11:20:44;354.55;;;329.17;;
66163;SDS011;52962;51.088;3.096;2023-07-31T11:23:15;314.13;;;291.52;;
66163;SDS011;52962;51.088;3.096;2023-07-31T11:25:45;343.90;;;320.67;;
66163;SDS011;52962;51.088;3.096;2023-07-31T11:28:13;308.80;;;287.05;;
66163;SDS011;52962;51.088;3.096;2023-07-31T11:30:44;315.10;;;292.73;;
66163;SDS011;52962;51.088;3.096;2023-07-31T11:33:14;294.13;;;273.33;;
66163;SDS011;52962;51.088;3.096;2023-07-31T11:35:43;283.45;;;262.00;;
66163;SDS011;52962;51.088;3.096;2023-07-31T11:38:20;375.17;;;346.75;;
66163;SDS011;52962;51.088;3.096;2023-07-31T11:40:50;270.15;;;250.98;;
66163;SDS011;52962;51.088;3.096;2023-07-31T11:43:19;299.05;;;277.30;;
66163;SDS011;52962;51.088;3.096;2023-07-31T11:45:50;298.23;;;276.13;;
66163;SDS011;52962;51.088;3.096;2023-07-31T11:48:20;249.63;;;230.63;;
66163;SDS011;52962;51.088;3.096;2023-07-31T11:50:49;252.88;;;233.43;;
66163;SDS011;52962;51.088;3.096;2023-07-31T11:53:20;363.65;;;333.83;;
66163;SDS011;52962;51.088;3.096;2023-07-31T11:58:21;235.88;;;219.23;;
66163;SDS011;52962;51.088;3.096;2023-07-31T12:00:51;307.88;;;285.67;;
66163;SDS011;52962;51.088;3.096;2023-07-31T12:03:20;311.05;;;288.20;;
66163;SDS011;52962;51.088;3.096;2023-07-31T12:05:49;292.95;;;271.85;;
66163;SDS011;52962;51.088;3.096;2023-07-31T12:08:17;313.35;;;290.52;;
66163;SDS011;52962;51.088;3.096;2023-07-31T12:10:50;265.50;;;242.82;;
66163;SDS011;52962;51.088;3.096;2023-07-31T12:13:22;305.92;;;282.15;;
66163;SDS011;52962;51.088;3.096;2023-07-31T12:18:24;342.70;;;320.15;;
66163;SDS011;52962;51.088;3.096;2023-07-31T12:20:55;309.98;;;286.48;;
66163;SDS011;52962;51.088;3.096;2023-07-31T12:23:25;254.77;;;232.10;;
66163;SDS011;52962;51.088;3.096;2023-07-31T12:26:02;367.85;;;342.73;;
66163;SDS011;52962;51.088;3.096;2023-07-31T12:28:34;329.38;;;301.02;;
66163;SDS011;52962;51.088;3.096;2023-07-31T12:31:05;280.38;;;258.20;;
66163;SDS011;52962;51.088;3.096;2023-07-31T12:33:34;288.20;;;264.45;;
66163;SDS011;52962;51.088;3.096;2023-07-31T12:36:06;280.05;;;259.70;;
66163;SDS011;52962;51.088;3.096;2023-07-31T12:38:35;321.67;;;298.20;;
66163;SDS011;52962;51.088;3.096;2023-07-31T12:41:03;329.15;;;305.90;;
66163;SDS011;52962;51.088;3.096;2023-07-31T12:43:33;342.27;;;315.85;;
66163;SDS011;52962;51.088;3.096;2023-07-31T12:46:01;345.58;;;323.08;;
66163;SDS011;52962;51.088;3.096;2023-07-31T12:48:32;409.88;;;380.63;;
66163;SDS011;52962;51.088;3.096;2023-07-31T12:51:00;342.77;;;318.73;;
66163;SDS011;52962;51.088;3.096;2023-07-31T12:53:29;315.15;;;292.08;;
66163;SDS011;52962;51.088;3.096;2023-07-31T12:55:57;341.65;;;316.20;;
66163;SDS011;52962;51.088;3.096;2023-07-31T12:58:25;380.98;;;354.08;;
66163;SDS011;52962;51.088;3.096;2023-07-31T13:00:54;323.23;;;299.92;;
66163;SDS011;52962;51.088;3.096;2023-07-31T13:03:22;313.67;;;293.00;;
66163;SDS011;52962;51.088;3.096;2023-07-31T13:05:52;451.80;;;415.25;;
66163;SDS011;52962;51.088;3.096;2023-07-31T13:08:20;396.00;;;369.48;;
66163;SDS011;52962;51.088;3.096;2023-07-31T13:10:48;361.35;;;336.15;;
66163;SDS011;52962;51.088;3.096;2023-07-31T13:13:17;308.02;;;277.55;;
66163;SDS011;52962;51.088;3.096;2023-07-31T13:15:45;353.23;;;325.73;;
66163;SDS011;52962;51.088;3.096;2023-07-31T13:18:13;347.98;;;323.63;;
66163;SDS011;52962;51.088;3.096;2023-07-31T13:20:41;270.90;;;252.15;;
66163;SDS011;52962;51.088;3.096;2023-07-31T13:23:11;329.25;;;305.77;;
66163;SDS011;52962;51.088;3.096;2023-07-31T13:25:39;328.27;;;305.95;;
66163;SDS011;52962;51.088;3.096;2023-07-31T13:28:08;301.63;;;280.38;;
66163;SDS011;52962;51.088;3.096;2023-07-31T13:30:36;422.10;;;389.67;;
66163;SDS011;52962;51.088;3.096;2023-07-31T13:33:04;366.40;;;340.60;;
66163;SDS011;52962;51.088;3.096;2023-07-31T13:35:43;294.35;;;274.05;;
66163;SDS011;52962;51.088;3.096;2023-07-31T13:38:13;365.10;;;336.20;;
66163;SDS011;52962;51.088;3.096;2023-07-31T13:40:41;312.58;;;288.98;;
66163;SDS011;52962;51.088;3.096;2023-07-31T13:45:37;254.80;;;238.23;;
66163;SDS011;52962;51.088;3.096;2023-07-31T13:48:05;283.50;;;260.90;;
66163;SDS011;52962;51.088;3.096;2023-07-31T13:50:33;309.17;;;285.67;;
66163;SDS011;52962;51.088;3.096;2023-07-31T13:55:31;387.70;;;355.92;;
66163;SDS011;52962;51.088;3.096;2023-07-31T13:57:59;287.80;;;264.67;;
66163;SDS011;52962;51.088;3.096;2023-07-31T14:00:28;262.25;;;242.45;;
66163;SDS011;52962;51.088;3.096;2023-07-31T14:02:56;332.13;;;308.95;;
66163;SDS011;52962;51.088;3.096;2023-07-31T14:05:26;381.10;;;354.23;;
66163;SDS011;52962;51.088;3.096;2023-07-31T14:07:54;294.10;;;270.35;;
66163;SDS011;52962;51.088;3.096;2023-07-31T14:10:23;347.30;;;323.33;;
66163;SDS011;52962;51.088;3.096;2023-07-31T14:12:52;418.75;;;388.08;;
66163;SDS011;52962;51.088;3.096;2023-07-31T14:15:20;302.95;;;278.38;;
66163;SDS011;52962;51.088;3.096;2023-07-31T14:17:49;315.88;;;294.25;;
66163;SDS011;52962;51.088;3.096;2023-07-31T14:20:17;351.58;;;325.80;;
66163;SDS011;52962;51.088;3.096;2023-07-31T14:22:46;433.48;;;401.55;;
66163;SDS011;52962;51.088;3.096;2023-07-31T14:27:42;259.33;;;241.63;;
66163;SDS011;52962;51.088;3.096;2023-07-31T14:30:12;323.17;;;299.95;;
66163;SDS011;52962;51.088;3.096;2023-07-31T14:32:40;343.58;;;320.83;;
66163;SDS011;52962;51.088;3.096;2023-07-31T14:35:09;292.02;;;269.58;;
66163;SDS011;52962;51.088;3.096;2023-07-31T14:37:37;354.48;;;327.45;;
66163;SDS011;52962;51.088;3.096;2023-07-31T14:40:06;414.05;;;384.05;;
66163;SDS011;52962;51.088;3.096;2023-07-31T14:42:35;463.35;;;430.00;;
66163;SDS011;52962;51.088;3.096;2023-07-31T14:45:04;329.77;;;304.73;;
66163;SDS011;52962;51.088;3.096;2023-07-31T14:47:35;439.45;;;406.63;;
66163;SDS011;52962;51.088;3.096;2023-07-31T14:50:04;378.45;;;351.92;;
66163;SDS011;52962;51.088;3.096;2023-07-31T14:52:32;349.73;;;323.73;;
66163;SDS011;52962;51.088;3.096;2023-07-31T14:55:01;317.08;;;293.65;;
66163;SDS011;52962;51.088;3.096;2023-07-31T14:57:29;232.98;;;215.68;;
66163;SDS011;52962;51.088;3.096;2023-07-31T14:59:57;450.85;;;415.70;;
66163;SDS011;52962;51.088;3.096;2023-07-31T15:02:26;275.70;;;254.13;;
66163;SDS011;52962;51.088;3.096;2023-07-31T15:04:56;283.58;;;264.50;;
66163;SDS011;52962;51.088;3.096;2023-07-31T15:07:25;401.33;;;373.67;;
66163;SDS011;52962;51.088;3.096;2023-07-31T15:09:53;437.98;;;405.65;;
66163;SDS011;52962;51.088;3.096;2023-07-31T15:12:21;368.73;;;341.60;;
66163;SDS011;52962;51.088;3.096;2023-07-31T15:14:50;282.70;;;262.70;;
66163;SDS011;52962;51.088;3.096;2023-07-31T15:17:18;337.45;;;311.08;;
66163;SDS011;52962;51.088;3.096;2023-07-31T15:19:47;322.02;;;297.33;;
66163;SDS011;52962;51.088;3.096;2023-07-31T15:22:16;325.65;;;301.33;;
66163;SDS011;52962;51.088;3.096;2023-07-31T15:24:44;414.35;;;385.35;;
66163;SDS011;52962;51.088;3.096;2023-07-31T15:27:13;447.25;;;415.95;;
66163;SDS011;52962;51.088;3.096;2023-07-31T15:29:41;328.67;;;301.58;;
66163;SDS011;52962;51.088;3.096;2023-07-31T15:32:09;487.30;;;453.95;;